Washington, District of Columbia
Current Conditions -  °F | °C
As of 10:52 AM on Sunday 21 Dec 2014 (Local Time) from KDCA Reporting Station
Overcast Overcast  
Wind Chill: 39°   Ceiling: 6500
Heat Index: 39°   Visibility: 10mi
Dew Point: 23°   Wind: 3mph
Humidity: 53%   Direction: 80°E
Pressure: 30.37"   Gusts: NA
Location:  38.89°N, 77.03°W
Report Text: KDCA 211552Z 08003KT 10SM OVC065 04/M05 A3037 RMK AO2 SLP285 T00391050
Loading
Personal Weather Stations






























Interactive Weather Map New forecast layout! Learn more

10-Day Weather Forecast

Advertisements
Track Severe Weather on mobile